Time;durP1;ratioP1;P1;durP2;ratioP2;P2;SDS_P1;SDS_P2;PMS_P1;PMS_P2;Temp;Humidity;BMP_temperature;BMP_pressure;BME280_temperature;BME280_humidity;BME280_pressure;Samples;Min_cycle;Max_cycle;Signal;HPM_P1;HPM_P2
2022/11/13 00:02:04;;;;;;;13.85;9.98;;;10.50;99.90;;;;;;1933542;73;21098;-81
2022/11/13 00:07:52;;;;;;;12.07;9.43;;;10.50;99.90;;;;;;1948206;72;22230;-82
2022/11/13 00:11:03;;;;;;;12.88;9.80;;;10.50;99.90;;;;;;1902522;75;21145;-81
2022/11/13 00:14:13;;;;;;;11.88;9.58;;;10.50;99.90;;;;;;1902841;75;21550;-80
2022/11/13 00:17:22;;;;;;;12.75;9.80;;;10.50;99.90;;;;;;1905991;75;21205;-80
2022/11/13 00:20:33;;;;;;;14.50;10.10;;;10.40;99.90;;;;;;1908119;75;21122;-81
2022/11/13 00:23:42;;;;;;;13.32;10.25;;;10.40;99.90;;;;;;1901613;75;21117;-80
2022/11/13 00:26:52;;;;;;;11.80;9.48;;;10.30;99.90;;;;;;1890490;75;21097;-80
2022/11/13 00:30:01;;;;;;;12.20;10.43;;;10.30;99.90;;;;;;1883867;75;21191;-80
2022/11/13 00:33:10;;;;;;;18.52;13.43;;;10.20;99.90;;;;;;1897670;75;21086;-81
2022/11/13 00:36:22;;;;;;;16.70;12.78;;;10.20;99.90;;;;;;1904337;75;21534;-81
2022/11/13 00:42:11;;;;;;;15.58;10.43;;;10.20;99.90;;;;;;1938164;72;22703;-80
2022/11/13 00:48:00;;;;;;;12.95;9.78;;;10.20;99.90;;;;;;1930566;72;22315;-80
2022/11/13 00:51:09;;;;;;;13.30;10.03;;;10.20;99.90;;;;;;1899331;75;21086;-82
2022/11/13 00:54:18;;;;;;;11.90;9.93;;;10.30;99.90;;;;;;1889605;75;21156;-80
2022/11/13 00:57:28;;;;;;;12.18;9.40;;;10.30;99.90;;;;;;1884965;75;21098;-80
2022/11/13 01:00:38;;;;;;;12.45;9.40;;;10.20;99.90;;;;;;1884744;75;21168;-82
2022/11/13 01:03:47;;;;;;;11.83;9.50;;;10.10;99.90;;;;;;1881005;75;21147;-80
2022/11/13 01:06:57;;;;;;;12.20;9.40;;;10.10;99.90;;;;;;1900496;75;21083;-80
2022/11/13 01:12:45;;;;;;;10.88;8.35;;;10.10;99.90;;;;;;1930810;72;22264;-79
2022/11/13 01:15:55;;;;;;;10.88;7.65;;;10.10;99.90;;;;;;1927160;74;21105;-80
2022/11/13 01:19:04;;;;;;;11.73;7.87;;;10.00;99.90;;;;;;1920807;74;21092;-80
2022/11/13 01:22:14;;;;;;;9.73;7.80;;;10.00;99.90;;;;;;1901755;74;21405;-80
2022/11/13 01:28:03;;;;;;;11.08;8.48;;;10.00;99.90;;;;;;1934335;72;22267;-79
2022/11/13 01:31:15;;;;;;;11.80;8.83;;;10.00;99.90;;;;;;1897902;75;21287;-81
2022/11/13 01:34:25;;;;;;;13.05;9.40;;;10.00;99.90;;;;;;1891263;75;21134;-81
2022/11/13 01:40:15;;;;;;;13.00;9.95;;;9.90;99.90;;;;;;1945009;72;22197;-79
2022/11/13 01:43:29;;;;;;;13.45;9.95;;;9.90;99.90;;;;;;1884019;75;21393;-81
2022/11/13 01:46:41;;;;;;;12.37;9.83;;;9.90;99.90;;;;;;1902193;75;21208;-81
2022/11/13 01:52:31;;;;;;;14.30;9.78;;;9.80;99.90;;;;;;1939749;72;22270;-81
2022/11/13 01:58:20;;;;;;;13.22;10.90;;;9.60;99.90;;;;;;1944058;72;22185;-79
2022/11/13 02:04:09;;;;;;;13.88;9.95;;;9.60;99.90;;;;;;1948130;72;22232;-80
2022/11/13 02:07:20;;;;;;;12.23;10.08;;;9.60;99.90;;;;;;1883794;75;21050;-81
2022/11/13 02:10:29;;;;;;;13.18;10.20;;;9.60;99.90;;;;;;1891983;75;21079;-80
2022/11/13 02:16:17;;;;;;;13.10;9.28;;;9.50;99.90;;;;;;1942450;72;22213;-81
2022/11/13 02:19:30;;;;;;;12.00;9.38;;;9.40;99.90;;;;;;1896283;75;21051;-80
2022/11/13 02:22:42;;;;;;;12.25;9.35;;;9.40;99.90;;;;;;1907061;75;21175;-81
2022/11/13 02:25:54;;;;;;;10.98;8.28;;;9.40;99.90;;;;;;1898857;75;21148;-80
2022/11/13 02:29:03;;;;;;;12.33;8.70;;;9.40;99.90;;;;;;1884026;75;21078;-80
2022/11/13 02:32:13;;;;;;;12.58;8.75;;;9.40;99.90;;;;;;1909441;75;21123;-80
2022/11/13 02:35:26;;;;;;;12.43;9.18;;;9.30;99.90;;;;;;1894890;75;21153;-81
2022/11/13 02:38:37;;;;;;;11.93;9.55;;;9.30;99.90;;;;;;1886265;75;21115;-80
2022/11/13 02:41:46;;;;;;;13.85;10.10;;;9.20;99.90;;;;;;1911152;75;21083;-82
2022/11/13 02:44:56;;;;;;;12.80;9.85;;;9.20;99.90;;;;;;1890387;75;21107;-80
2022/11/13 02:48:06;;;;;;;13.18;10.35;;;9.20;99.90;;;;;;1892494;75;21117;-80
2022/11/13 02:51:16;;;;;;;13.08;9.95;;;9.20;99.90;;;;;;1902263;75;21078;-80
2022/11/13 02:54:25;;;;;;;14.83;10.72;;;9.20;99.90;;;;;;1892739;75;21172;-80
2022/11/13 02:57:34;;;;;;;14.03;10.93;;;9.20;99.90;;;;;;1895406;75;21136;-82
2022/11/13 03:00:44;;;;;;;14.33;10.28;;;9.30;99.90;;;;;;1898007;75;21106;-81
2022/11/13 03:03:53;;;;;;;14.03;9.63;;;9.40;99.90;;;;;;1883588;75;21353;-81
2022/11/13 03:07:06;;;;;;;14.33;9.48;;;9.40;99.90;;;;;;1904091;75;21176;-80
2022/11/13 03:12:55;;;;;;;11.85;9.05;;;9.30;99.90;;;;;;1936109;72;22163;-80
2022/11/13 03:18:50;;;;;;;13.18;9.48;;;9.30;99.90;;;;;;1950781;72;22235;-82
2022/11/13 03:24:38;;;;;;;12.47;9.58;;;9.40;99.90;;;;;;1942243;72;22197;-80
2022/11/13 03:27:48;;;;;;;13.48;9.15;;;9.40;99.90;;;;;;1887438;75;21081;-81
2022/11/13 03:30:57;;;;;;;12.55;9.80;;;9.40;99.90;;;;;;1887232;75;21164;-81
2022/11/13 03:34:06;;;;;;;12.28;9.33;;;9.50;99.90;;;;;;1883981;75;21268;-80
2022/11/13 03:37:15;;;;;;;10.60;8.40;;;9.50;99.90;;;;;;1910097;75;21098;-80
2022/11/13 03:43:04;;;;;;;11.22;8.25;;;9.50;99.90;;;;;;1953200;72;22169;-80
2022/11/13 03:46:13;;;;;;;12.73;8.45;;;9.60;99.90;;;;;;1920073;73;21095;-81
2022/11/13 03:49:22;;;;;;;12.00;8.83;;;9.60;99.90;;;;;;1904520;75;21185;-80
2022/11/13 03:52:31;;;;;;;11.88;8.95;;;9.60;99.90;;;;;;1916296;74;21071;-80
2022/11/13 03:58:20;;;;;;;12.63;8.70;;;9.60;99.90;;;;;;1928770;72;22181;-79
2022/11/13 04:01:29;;;;;;;11.55;8.43;;;9.60;99.90;;;;;;1904061;75;21183;-81
2022/11/13 04:07:20;;;;;;;11.95;8.55;;;9.60;99.90;;;;;;1930111;72;22161;-80
2022/11/13 04:10:29;;;;;;;12.80;9.05;;;9.70;99.90;;;;;;1879973;75;21098;-81
2022/11/13 04:13:38;;;;;;;12.47;8.78;;;9.60;99.90;;;;;;1882981;75;21086;-80
2022/11/13 04:16:48;;;;;;;10.93;8.00;;;9.60;99.90;;;;;;1872338;75;21208;-80
2022/11/13 04:19:57;;;;;;;11.50;8.58;;;9.60;99.90;;;;;;1900348;75;21109;-81
2022/11/13 04:23:11;;;;;;;12.30;8.23;;;9.60;99.90;;;;;;1886240;75;21098;-81
2022/11/13 04:26:18;;;;;;;10.25;8.20;;;9.50;99.90;;;;;;1891732;75;21091;-80
2022/11/13 04:29:27;;;;;;;9.53;7.53;;;9.50;99.90;;;;;;1912195;73;21110;-80
2022/11/13 04:32:37;;;;;;;9.18;7.08;;;9.50;99.90;;;;;;1898969;75;21256;-80
2022/11/13 04:38:25;;;;;;;11.38;7.78;;;9.40;99.90;;;;;;1949432;72;22275;-80
2022/11/13 04:47:42;;;;;;;12.15;8.68;;;9.40;99.90;;;;;;1919331;72;22258;-80
2022/11/13 04:50:51;;;;;;;11.18;8.15;;;9.40;99.90;;;;;;1890576;74;21083;-80
2022/11/13 04:54:01;;;;;;;13.05;8.60;;;9.40;99.90;;;;;;1880675;74;21569;-80
2022/11/13 04:57:10;;;;;;;10.00;8.20;;;9.40;99.90;;;;;;1904935;74;21153;-80
2022/11/13 05:02:59;;;;;;;10.75;8.70;;;9.40;99.90;;;;;;1935483;72;22189;-82
2022/11/13 05:06:10;;;;;;;11.03;7.87;;;9.40;99.90;;;;;;1910077;73;21102;-83
2022/11/13 05:09:20;;;;;;;9.18;7.72;;;9.40;99.90;;;;;;1912826;75;21160;-81
2022/11/13 05:12:29;;;;;;;10.68;7.67;;;9.40;99.90;;;;;;1892004;75;21364;-81
2022/11/13 05:18:18;;;;;;;9.98;7.83;;;9.30;99.90;;;;;;1928223;72;22614;-80
2022/11/13 05:21:27;;;;;;;10.45;7.78;;;9.40;99.90;;;;;;1893542;75;21582;-81
2022/11/13 05:24:36;;;;;;;9.60;7.62;;;9.30;99.90;;;;;;1872545;75;21102;-81
2022/11/13 05:27:45;;;;;;;10.40;7.75;;;9.30;99.90;;;;;;1879586;75;21131;-80
2022/11/13 05:33:34;;;;;;;8.95;7.00;;;9.30;99.90;;;;;;1938377;72;22315;-82
2022/11/13 05:36:43;;;;;;;9.70;7.20;;;9.30;99.90;;;;;;1898887;75;21152;-81
2022/11/13 05:39:52;;;;;;;8.00;6.70;;;9.30;99.90;;;;;;1880327;75;21103;-81
2022/11/13 05:43:01;;;;;;;9.50;7.10;;;9.30;99.90;;;;;;1879947;75;21217;-81
2022/11/13 05:46:14;;;;;;;10.88;6.72;;;9.30;99.90;;;;;;1876059;75;21095;-82
2022/11/13 05:49:23;;;;;;;9.03;7.47;;;9.30;99.90;;;;;;1881671;75;21051;-81
2022/11/13 05:52:33;;;;;;;9.33;7.17;;;9.30;99.90;;;;;;1873425;75;21171;-81
2022/11/13 05:58:21;;;;;;;11.63;8.60;;;9.30;99.90;;;;;;1953580;72;22222;-80
2022/11/13 06:01:32;;;;;;;12.33;8.30;;;9.30;99.90;;;;;;1896761;75;21098;-81
2022/11/13 06:04:42;;;;;;;11.85;8.63;;;9.30;99.90;;;;;;1905962;75;21617;-81
2022/11/13 06:07:51;;;;;;;11.12;9.20;;;9.30;99.90;;;;;;1902767;75;21111;-80
2022/11/13 06:11:02;;;;;;;11.53;9.05;;;9.30;99.90;;;;;;1890256;75;21583;-80
2022/11/13 06:14:11;;;;;;;13.62;9.60;;;9.30;99.90;;;;;;1902014;75;21584;-80
2022/11/13 06:17:20;;;;;;;15.18;10.15;;;9.30;99.90;;;;;;1897366;75;21514;-80
2022/11/13 06:20:30;;;;;;;12.43;9.55;;;9.30;99.90;;;;;;1911024;75;21095;-81
2022/11/13 06:23:40;;;;;;;11.63;9.30;;;9.20;99.90;;;;;;1904688;75;21141;-80
2022/11/13 06:26:49;;;;;;;12.68;10.03;;;9.20;99.90;;;;;;1897420;75;21093;-80
2022/11/13 06:32:37;;;;;;;14.00;9.65;;;9.30;99.90;;;;;;1935478;72;22210;-80
2022/11/13 06:38:25;;;;;;;10.90;9.03;;;9.20;99.90;;;;;;1944249;72;22357;-82
2022/11/13 06:41:35;;;;;;;9.65;8.20;;;9.20;99.90;;;;;;1888590;75;21533;-80
2022/11/13 06:47:24;;;;;;;10.65;9.00;;;9.30;99.90;;;;;;1956840;72;22634;-80
2022/11/13 06:50:33;;;;;;;11.90;9.13;;;9.20;99.90;;;;;;1918392;74;21144;-81
2022/11/13 06:53:43;;;;;;;11.78;9.35;;;9.30;99.90;;;;;;1928759;73;21165;-80
2022/11/13 06:56:53;;;;;;;11.28;9.35;;;9.30;99.90;;;;;;1914374;74;21051;-80
2022/11/13 07:00:02;;;;;;;12.13;8.95;;;9.30;99.90;;;;;;1916761;74;21542;-80
2022/11/13 07:03:17;;;;;;;10.30;8.95;;;9.30;99.90;;;;;;1904315;75;21090;-80
2022/11/13 07:06:27;;;;;;;14.73;9.35;;;9.20;99.90;;;;;;1911354;74;21586;-80
2022/11/13 07:09:39;;;;;;;11.95;8.90;;;9.40;99.90;;;;;;1929918;74;21106;-80
2022/11/13 07:12:49;;;;;;;13.00;9.60;;;9.30;99.90;;;;;;1924700;74;21133;-81
2022/11/13 07:16:03;;;;;;;14.35;10.05;;;9.30;99.90;;;;;;1915563;73;21102;-81
2022/11/13 07:19:19;;;;;;;14.80;10.10;;;9.30;99.90;;;;;;1905046;74;21192;-96
2022/11/13 07:22:30;;;;;;;13.28;10.28;;;9.30;99.90;;;;;;1905172;75;21128;-95
2022/11/13 09:01:59;;;;;;;19.15;11.97;;;10.10;99.90;;;;;;1926336;71;21069;-92
2022/11/13 09:05:09;;;;;;;16.02;12.03;;;10.10;99.90;;;;;;1929139;74;21142;-93
2022/11/13 09:08:19;;;;;;;15.95;11.03;;;10.10;99.90;;;;;;1918608;74;21098;-93
2022/11/13 09:11:29;;;;;;;16.20;12.65;;;10.10;99.90;;;;;;1928265;74;21124;-93
2022/11/13 09:14:38;;;;;;;15.85;12.00;;;10.10;99.90;;;;;;1916001;75;21174;-94
2022/11/13 09:17:48;;;;;;;15.30;11.83;;;10.10;99.90;;;;;;1917638;74;21081;-93
2022/11/13 09:21:02;;;;;;;14.68;11.03;;;10.10;99.90;;;;;;1931382;73;21178;-92
2022/11/13 09:24:15;;;;;;;15.78;13.00;;;10.20;99.90;;;;;;1946799;73;21049;-92
2022/11/13 09:27:24;;;;;;;16.55;11.90;;;10.20;99.90;;;;;;1946399;73;21153;-94
2022/11/13 09:30:37;;;;;;;16.60;12.03;;;10.10;99.90;;;;;;1926777;73;21149;-93
2022/11/13 09:33:50;;;;;;;16.93;12.93;;;10.20;99.90;;;;;;1948498;73;21101;-93
2022/11/13 09:36:59;;;;;;;15.63;11.80;;;10.20;99.90;;;;;;1946036;73;21048;-94
2022/11/13 09:40:14;;;;;;;17.15;12.23;;;10.20;99.90;;;;;;1948893;73;21168;-92
2022/11/13 09:43:31;;;;;;;17.55;13.15;;;10.30;99.90;;;;;;1934180;74;21123;-90
2022/11/13 09:49:27;;;;;;;18.30;12.58;;;10.40;99.90;;;;;;1944075;72;23459;-92
2022/11/13 09:52:39;;;;;;;15.55;12.13;;;10.40;99.90;;;;;;1896618;75;21173;-87
2022/11/13 09:55:53;;;;;;;17.75;12.85;;;10.40;99.90;;;;;;1903594;74;21119;-83
2022/11/13 09:59:08;;;;;;;16.95;13.30;;;10.50;99.90;;;;;;1883383;75;21102;-83
2022/11/13 10:02:25;;;;;;;17.57;12.95;;;10.50;99.90;;;;;;1895567;75;21078;-83
2022/11/13 10:05:38;;;;;;;17.60;12.45;;;10.60;99.90;;;;;;1897790;75;21058;-83
2022/11/13 10:08:53;;;;;;;17.55;13.40;;;10.70;99.90;;;;;;1889895;75;21094;-84
2022/11/13 10:12:07;;;;;;;18.07;13.75;;;10.70;99.90;;;;;;1865772;76;21235;-83
2022/11/13 10:15:18;;;;;;;16.85;12.37;;;10.80;99.90;;;;;;1869759;76;21153;-83
2022/11/13 10:21:15;;;;;;;17.37;13.00;;;10.80;99.90;;;;;;1955685;72;22196;-84
2022/11/13 10:24:27;;;;;;;17.07;12.65;;;11.00;99.90;;;;;;1904456;73;21105;-83
2022/11/13 10:27:36;;;;;;;17.70;13.10;;;11.20;99.90;;;;;;1904065;75;21127;-83
2022/11/13 10:33:27;;;;;;;16.82;12.53;;;11.30;99.90;;;;;;1935305;72;22306;-82
2022/11/13 10:36:40;;;;;;;18.95;13.03;;;11.30;99.90;;;;;;1905019;75;21090;-83
2022/11/13 10:39:49;;;;;;;17.12;12.58;;;11.40;99.90;;;;;;1905266;75;21150;-83
2022/11/13 10:43:10;;;;;;;18.37;12.58;;;11.50;99.90;;;;;;1895646;75;21118;-86
2022/11/13 10:46:24;;;;;;;16.17;13.28;;;11.40;99.90;;;;;;1883739;75;21093;-85
2022/11/13 10:49:33;;;;;;;15.78;12.98;;;11.40;99.90;;;;;;1906271;75;21090;-86
2022/11/13 10:52:48;;;;;;;15.63;12.55;;;11.40;99.90;;;;;;1900642;75;21086;-85
2022/11/13 10:58:37;;;;;;;16.52;12.65;;;11.40;99.90;;;;;;1957337;72;22249;-84
2022/11/13 11:01:52;;;;;;;18.30;12.35;;;11.40;99.90;;;;;;1923908;74;21092;-86
2022/11/13 11:07:42;;;;;;;18.65;13.40;;;11.40;99.90;;;;;;1941904;72;22295;-87
2022/11/13 11:13:34;;;;;;;21.45;13.93;;;11.40;99.90;;;;;;1971965;72;22276;-84
2022/11/13 11:16:45;;;;;;;17.25;13.68;;;11.40;99.90;;;;;;1919128;73;21155;-87
2022/11/13 11:22:38;;;;;;;18.65;14.40;;;11.50;99.90;;;;;;1954153;72;22200;-86
2022/11/13 11:28:35;;;;;;;17.02;13.65;;;11.50;99.90;;;;;;1943800;72;22322;-86
2022/11/13 11:31:49;;;;;;;17.37;13.40;;;11.50;99.90;;;;;;1905107;75;21078;-85
2022/11/13 11:37:41;;;;;;;19.40;14.30;;;11.60;99.90;;;;;;1926805;72;22266;-88
2022/11/13 11:43:40;;;;;;;17.70;14.33;;;11.70;99.90;;;;;;1954050;72;22158;-85
2022/11/13 11:46:50;;;;;;;17.12;14.58;;;11.70;99.90;;;;;;1865971;76;21114;-86
2022/11/13 11:52:46;;;;;;;17.75;14.23;;;11.80;99.90;;;;;;1929289;72;22167;-87
2022/11/13 11:56:11;;;;;;;19.67;14.38;;;11.80;99.90;;;;;;1881336;75;21178;-86
2022/11/13 11:59:43;;;;;;;18.07;13.98;;;11.80;99.90;;;;;;1876646;75;21255;-87
2022/11/13 12:03:20;;;;;;;19.85;15.13;;;11.70;99.90;;;;;;1897410;75;21107;-88
2022/11/13 12:06:37;;;;;;;18.50;14.28;;;11.80;99.90;;;;;;1885931;75;21184;-86
2022/11/13 12:09:50;;;;;;;19.00;14.45;;;11.90;99.90;;;;;;1872520;75;21156;-86
2022/11/13 12:15:44;;;;;;;17.02;12.85;;;12.10;99.90;;;;;;1940505;72;22201;-88
2022/11/13 12:21:43;;;;;;;20.40;15.45;;;12.20;99.90;;;;;;1939646;72;22693;-88
2022/11/13 12:27:40;;;;;;;19.42;17.30;;;12.40;99.90;;;;;;1914754;72;28724;-86
2022/11/13 12:30:56;;;;;;;18.00;15.40;;;12.70;99.90;;;;;;1878690;75;21106;-87
2022/11/13 12:34:10;;;;;;;18.52;14.47;;;12.80;99.90;;;;;;1866153;76;21115;-86
2022/11/13 12:37:22;;;;;;;16.32;12.88;;;12.90;99.90;;;;;;1885354;75;21191;-85
2022/11/13 12:40:35;;;;;;;14.20;11.57;;;12.90;99.90;;;;;;1893267;75;21090;-86
2022/11/13 12:43:59;;;;;;;12.33;9.73;;;13.00;99.90;;;;;;1884161;75;21117;-86
2022/11/13 12:47:09;;;;;;;9.73;8.03;;;13.00;99.90;;;;;;1890931;75;21102;-87
2022/11/13 12:53:05;;;;;;;13.65;10.78;;;13.10;99.90;;;;;;2024510;69;22224;-85
2022/11/13 12:56:31;;;;;;;12.73;10.72;;;13.20;99.90;;;;;;1965506;72;21052;-86
2022/11/13 12:59:43;;;;;;;13.18;10.53;;;13.20;99.90;;;;;;1958237;72;21128;-85
2022/11/13 13:03:02;;;;;;;12.37;10.08;;;13.30;99.90;;;;;;1964344;72;21107;-86
2022/11/13 13:06:21;;;;;;;14.10;10.15;;;13.30;99.90;;;;;;1971675;72;21138;-87
2022/11/13 13:09:42;;;;;;;13.93;10.03;;;13.40;99.90;;;;;;1963573;72;21079;-86
2022/11/13 13:12:54;;;;;;;12.43;10.32;;;13.50;99.90;;;;;;1974728;72;21086;-86
2022/11/13 13:18:42;;;;;;;12.55;10.03;;;13.60;99.90;;;;;;1913176;72;22242;-88
2022/11/13 13:21:51;;;;;;;13.60;10.70;;;13.60;99.90;;;;;;1894412;74;21113;-87
2022/11/13 13:25:03;;;;;;;13.05;10.35;;;13.60;99.90;;;;;;1884571;75;21122;-88
2022/11/13 13:28:22;;;;;;;13.50;11.03;;;13.50;99.90;;;;;;1899372;75;21219;-87
2022/11/13 13:34:26;;;;;;;14.03;10.60;;;13.50;99.90;;;;;;1953294;72;22150;-87
2022/11/13 13:37:42;;;;;;;15.23;10.75;;;13.60;99.90;;;;;;1908662;73;21118;-87
2022/11/13 13:41:00;;;;;;;13.00;10.63;;;13.50;99.90;;;;;;1904960;73;21090;-87
2022/11/13 13:44:26;;;;;;;12.80;10.40;;;13.50;99.90;;;;;;1924901;73;21666;-87
2022/11/13 13:47:38;;;;;;;12.80;10.70;;;13.50;99.90;;;;;;1916839;73;21201;-86
2022/11/13 13:50:52;;;;;;;13.48;11.22;;;13.60;99.90;;;;;;1896195;73;21180;-87
2022/11/13 13:54:04;;;;;;;13.93;11.53;;;13.80;99.90;;;;;;1898590;73;21102;-86
2022/11/13 13:57:16;;;;;;;12.63;10.80;;;13.80;99.90;;;;;;1892429;73;21085;-86
2022/11/13 14:03:04;;;;;;;12.98;10.95;;;14.10;99.90;;;;;;1929301;72;22291;-87
2022/11/13 14:06:21;;;;;;;13.03;11.08;;;14.10;99.90;;;;;;1912388;73;21121;-86
2022/11/13 14:09:31;;;;;;;14.68;11.40;;;14.00;99.90;;;;;;1888507;75;21326;-87
2022/11/13 14:15:28;;;;;;;14.63;11.83;;;14.20;99.90;;;;;;1951156;72;22204;-85
2022/11/13 14:18:37;;;;;;;13.72;11.18;;;14.20;99.90;;;;;;1904527;74;21106;-86
2022/11/13 14:21:49;;;;;;;14.87;11.40;;;14.30;99.90;;;;;;1904572;74;21114;-87
2022/11/13 14:25:00;;;;;;;13.53;11.68;;;14.10;99.90;;;;;;1904765;73;21170;-87
2022/11/13 14:28:16;;;;;;;16.35;11.28;;;14.00;99.90;;;;;;1906439;74;21087;-86
2022/11/13 14:31:30;;;;;;;15.32;11.40;;;14.00;99.90;;;;;;1914676;74;21095;-86
2022/11/13 14:34:44;;;;;;;12.88;11.20;;;14.00;99.90;;;;;;1868020;77;21067;-87
2022/11/13 14:40:34;;;;;;;14.40;11.43;;;13.90;99.90;;;;;;1961477;72;22207;-87
2022/11/13 14:43:50;;;;;;;14.40;11.40;;;13.70;99.90;;;;;;1931969;73;21120;-87
2022/11/13 14:49:46;;;;;;;14.18;11.50;;;13.60;99.90;;;;;;1938769;72;22317;-88
2022/11/13 14:53:00;;;;;;;13.83;11.95;;;13.60;99.90;;;;;;1898660;75;21110;-86
2022/11/13 14:58:49;;;;;;;13.50;11.30;;;13.50;99.90;;;;;;1932516;72;22302;-88
2022/11/13 15:01:59;;;;;;;13.55;10.98;;;13.40;99.90;;;;;;1906889;75;21232;-86
2022/11/13 15:07:49;;;;;;;14.58;11.73;;;13.30;99.90;;;;;;1945114;72;22621;-88
2022/11/13 15:10:58;;;;;;;15.10;12.35;;;13.20;99.90;;;;;;1890189;75;21685;-87
2022/11/13 15:14:12;;;;;;;14.95;12.50;;;13.00;99.90;;;;;;1881484;75;21145;-86
2022/11/13 15:17:23;;;;;;;13.83;11.22;;;13.00;99.90;;;;;;1876646;75;21157;-86
2022/11/13 15:20:33;;;;;;;15.23;12.05;;;12.90;99.90;;;;;;1878506;75;21127;-87
2022/11/13 15:23:43;;;;;;;15.55;11.93;;;12.80;99.90;;;;;;1891019;75;22232;-86
2022/11/13 15:26:52;;;;;;;15.38;12.05;;;12.70;99.90;;;;;;1897506;75;21107;-86
2022/11/13 15:30:02;;;;;;;16.12;12.73;;;12.60;99.90;;;;;;1874748;75;21419;-86
2022/11/13 15:33:15;;;;;;;14.63;12.03;;;12.50;99.90;;;;;;1872667;75;21056;-86
2022/11/13 15:36:25;;;;;;;14.05;12.10;;;12.40;99.90;;;;;;1890861;75;21118;-86
2022/11/13 15:39:35;;;;;;;15.43;12.60;;;12.40;99.90;;;;;;1869079;75;21562;-86
2022/11/13 15:42:45;;;;;;;16.30;13.03;;;12.40;99.90;;;;;;1878601;75;21139;-86
2022/11/13 15:45:55;;;;;;;15.63;12.65;;;12.30;99.90;;;;;;1883025;75;21075;-86
2022/11/13 15:49:05;;;;;;;16.02;12.28;;;12.10;99.90;;;;;;1884326;75;21062;-87
2022/11/13 15:52:15;;;;;;;16.75;13.20;;;12.00;99.90;;;;;;1888896;75;21151;-87
2022/11/13 15:55:29;;;;;;;15.23;12.90;;;11.90;99.90;;;;;;1902998;75;21106;-87
2022/11/13 16:01:19;;;;;;;17.40;13.43;;;11.70;99.90;;;;;;1930684;72;22186;-87
2022/11/13 16:04:29;;;;;;;14.85;12.23;;;11.70;99.90;;;;;;1909083;75;21168;-86
2022/11/13 16:07:40;;;;;;;14.25;12.45;;;11.60;99.90;;;;;;1885251;75;21236;-87
2022/11/13 16:10:51;;;;;;;14.50;12.37;;;11.50;99.90;;;;;;1890497;75;21152;-87
2022/11/13 16:14:00;;;;;;;15.53;13.00;;;11.50;99.90;;;;;;1876962;75;21624;-87
2022/11/13 16:17:15;;;;;;;18.40;13.68;;;11.50;99.90;;;;;;1898085;75;21160;-86
2022/11/13 16:20:24;;;;;;;18.00;14.15;;;11.40;99.90;;;;;;1885311;75;21142;-86
2022/11/13 16:23:34;;;;;;;18.02;13.38;;;11.30;99.90;;;;;;1882091;75;21102;-86
2022/11/13 16:26:46;;;;;;;19.37;13.43;;;11.30;99.90;;;;;;1895229;75;21151;-86
2022/11/13 16:29:56;;;;;;;18.87;14.40;;;11.30;99.90;;;;;;1890563;75;21106;-87
2022/11/13 16:33:09;;;;;;;13.93;11.40;;;11.20;99.90;;;;;;1896610;75;21173;-87
2022/11/13 16:36:20;;;;;;;16.15;12.45;;;11.10;99.90;;;;;;1885413;75;21156;-87
2022/11/13 16:39:29;;;;;;;18.35;13.40;;;11.00;99.90;;;;;;1864474;75;21200;-86
2022/11/13 16:42:39;;;;;;;14.98;12.10;;;10.90;99.90;;;;;;1876075;75;21197;-86
2022/11/13 16:48:34;;;;;;;16.07;13.58;;;10.80;99.90;;;;;;1944748;72;22647;-87
2022/11/13 16:51:43;;;;;;;18.65;14.18;;;10.80;99.90;;;;;;1916396;75;21114;-86
2022/11/13 16:57:33;;;;;;;16.85;13.28;;;10.70;99.90;;;;;;1951632;72;22170;-87
2022/11/13 17:00:42;;;;;;;17.07;13.95;;;10.70;99.90;;;;;;1897319;75;21098;-88
2022/11/13 17:03:52;;;;;;;22.37;13.75;;;10.80;99.90;;;;;;1902062;75;21176;-87
2022/11/13 17:07:02;;;;;;;17.82;14.30;;;10.80;99.90;;;;;;1900704;75;21086;-87
2022/11/13 17:12:52;;;;;;;18.40;13.38;;;10.70;99.90;;;;;;1931483;72;22790;-87
2022/11/13 17:16:02;;;;;;;18.75;13.90;;;10.70;99.90;;;;;;1889601;75;21089;-86
2022/11/13 17:19:14;;;;;;;17.37;13.00;;;10.60;99.90;;;;;;1893823;75;21217;-86
2022/11/13 17:22:23;;;;;;;15.95;12.28;;;10.60;99.90;;;;;;1888869;75;21203;-86
2022/11/13 17:25:33;;;;;;;14.25;11.95;;;10.50;99.90;;;;;;1893668;75;21456;-86
2022/11/13 17:28:42;;;;;;;16.62;13.13;;;10.50;99.90;;;;;;1875858;76;21160;-86
2022/11/13 17:31:52;;;;;;;16.65;12.70;;;10.40;99.90;;;;;;1886222;75;21122;-86
2022/11/13 17:40:27;;;;;;;17.80;14.07;;;10.40;99.90;;;;;;1962623;72;22478;-87
2022/11/13 17:43:37;;;;;;;19.65;14.68;;;10.40;99.90;;;;;;1926172;74;21109;-86
2022/11/13 17:46:47;;;;;;;17.82;14.50;;;10.40;99.90;;;;;;1912123;74;21641;-86
2022/11/13 17:49:58;;;;;;;16.30;11.93;;;10.40;99.90;;;;;;1906370;74;21094;-86
2022/11/13 17:53:09;;;;;;;19.20;14.53;;;10.30;99.90;;;;;;1918839;74;21165;-86
2022/11/13 17:58:57;;;;;;;18.25;14.60;;;10.20;99.90;;;;;;1934328;72;22153;-87
2022/11/13 18:02:07;;;;;;;17.65;14.15;;;10.20;99.90;;;;;;1898774;75;21098;-86
2022/11/13 18:05:17;;;;;;;19.60;15.03;;;10.10;99.90;;;;;;1895258;75;21111;-86
2022/11/13 18:08:27;;;;;;;18.30;14.28;;;10.10;99.90;;;;;;1888423;75;21098;-87
2022/11/13 18:14:17;;;;;;;20.43;15.20;;;10.00;99.90;;;;;;1954425;72;23151;-82
2022/11/13 18:17:27;;;;;;;21.50;15.45;;;10.10;99.90;;;;;;1873362;75;21167;-81
2022/11/13 18:23:14;;;;;;;21.48;15.65;;;10.00;99.90;;;;;;1953742;72;22688;-82
2022/11/13 18:29:04;;;;;;;17.70;14.35;;;10.00;99.90;;;;;;1920676;72;22285;-81
2022/11/13 18:32:14;;;;;;;16.50;12.70;;;10.00;99.90;;;;;;1888494;74;21208;-82
2022/11/13 18:35:23;;;;;;;20.70;14.60;;;10.00;99.90;;;;;;1906059;74;21757;-81
2022/11/13 18:38:33;;;;;;;18.27;13.93;;;10.00;99.90;;;;;;1896733;74;21185;-81
2022/11/13 18:41:42;;;;;;;16.02;12.58;;;10.00;99.90;;;;;;1916773;74;21373;-80
2022/11/13 18:44:52;;;;;;;17.60;12.33;;;10.00;99.90;;;;;;1906883;74;21161;-80
2022/11/13 18:48:01;;;;;;;15.98;12.88;;;9.90;99.90;;;;;;1913201;74;21162;-81
2022/11/13 18:51:13;;;;;;;17.95;13.83;;;9.90;99.90;;;;;;1916721;74;21114;-82
2022/11/13 18:54:23;;;;;;;19.62;14.23;;;9.80;99.90;;;;;;1881914;74;21178;-80
2022/11/13 18:57:33;;;;;;;19.52;13.35;;;9.70;99.90;;;;;;1888518;75;21113;-80
2022/11/13 19:00:42;;;;;;;17.57;13.68;;;9.70;99.90;;;;;;1892799;75;21175;-81
2022/11/13 19:03:53;;;;;;;17.30;13.65;;;9.70;99.90;;;;;;1885754;75;21112;-81
2022/11/13 19:07:04;;;;;;;17.57;13.55;;;9.70;99.90;;;;;;1894496;74;21116;-80
2022/11/13 19:10:14;;;;;;;18.45;13.62;;;9.70;99.90;;;;;;1880285;75;21123;-81
2022/11/13 19:13:24;;;;;;;18.27;13.48;;;9.70;99.90;;;;;;1886471;74;21139;-80
2022/11/13 19:16:36;;;;;;;20.05;14.38;;;9.70;99.90;;;;;;1887221;74;21155;-81
2022/11/13 19:22:25;;;;;;;20.17;14.85;;;9.70;99.90;;;;;;1943435;72;23040;-82
2022/11/13 19:28:12;;;;;;;18.52;14.15;;;9.60;99.90;;;;;;1933259;72;22233;-79
2022/11/13 19:31:24;;;;;;;15.30;12.95;;;9.60;99.90;;;;;;1888047;75;21055;-80
2022/11/13 19:34:33;;;;;;;16.15;12.33;;;9.50;99.90;;;;;;1882432;75;21646;-80
2022/11/13 19:37:43;;;;;;;13.75;11.25;;;9.50;99.90;;;;;;1888236;75;21154;-80
2022/11/13 19:43:37;;;;;;;13.98;11.43;;;9.50;99.90;;;;;;1932482;72;22114;-82
2022/11/13 19:49:26;;;;;;;18.40;12.82;;;9.50;99.90;;;;;;1941808;72;22258;-81
2022/11/13 19:52:35;;;;;;;18.70;12.60;;;9.50;99.90;;;;;;1895673;75;21181;-82
2022/11/13 19:55:54;;;;;;;16.15;12.63;;;9.40;99.90;;;;;;1901862;75;21111;-81
2022/11/13 19:59:04;;;;;;;20.12;12.65;;;9.40;99.90;;;;;;1891215;75;21102;-81
2022/11/13 20:02:14;;;;;;;15.95;13.25;;;9.50;99.90;;;;;;1892124;75;21122;-81
2022/11/13 20:08:01;;;;;;;16.95;12.80;;;9.40;99.90;;;;;;1945177;72;22268;-82
2022/11/13 20:11:13;;;;;;;14.40;11.33;;;9.50;99.90;;;;;;1901571;75;21537;-81
2022/11/13 20:14:22;;;;;;;14.70;10.18;;;9.50;99.90;;;;;;1911718;73;21143;-81
2022/11/13 20:17:31;;;;;;;12.95;10.18;;;9.30;99.90;;;;;;1895736;73;21102;-81
2022/11/13 20:20:44;;;;;;;13.40;10.78;;;9.20;99.90;;;;;;1896403;73;21168;-81
2022/11/13 20:24:05;;;;;;;15.10;12.00;;;9.20;99.90;;;;;;1890528;73;21137;-81
2022/11/13 20:27:14;;;;;;;14.07;11.53;;;9.20;99.90;;;;;;1878999;75;21236;-80
2022/11/13 20:30:24;;;;;;;17.42;12.65;;;9.10;99.90;;;;;;1897280;74;21222;-81
2022/11/13 20:33:34;;;;;;;18.07;12.58;;;9.10;99.90;;;;;;1893189;74;21152;-81
2022/11/13 20:36:44;;;;;;;14.98;11.55;;;9.00;99.90;;;;;;1910531;74;21111;-81
2022/11/13 20:39:53;;;;;;;14.83;12.50;;;9.00;99.90;;;;;;1883645;76;21164;-81
2022/11/13 20:43:03;;;;;;;15.00;13.32;;;8.90;99.90;;;;;;1886965;75;21129;-80
2022/11/13 20:46:14;;;;;;;20.95;16.00;;;8.80;99.90;;;;;;1852543;76;21136;-81
2022/11/13 20:49:24;;;;;;;19.02;13.88;;;8.80;99.90;;;;;;1886828;76;21537;-80